Time;durP1;ratioP1;P1;durP2;ratioP2;P2;SDS_P1;SDS_P2;PMS_P1;PMS_P2;Temp;Humidity;BMP_temperature;BMP_pressure;BME280_temperature;BME280_humidity;BME280_pressure;Samples;Min_cycle;Max_cycle;Signal;HPM_P1;HPM_P2
2022/11/05 00:09:31;;;;;;;;;;;;;;;10.93;100.00;97528.00;5121945;28;19942;-63
2022/11/05 00:17:29;;;;;;;;;;;;;;;10.93;100.00;97538.69;5121821;28;19924;-63
2022/11/05 00:19:55;;;;;;;;;;;;;;;10.87;100.00;97540.59;5124041;28;19959;-62
2022/11/05 00:25:16;;;;;;;;;;;;;;;10.52;100.00;97541.50;5121521;28;20038;-62
2022/11/05 00:27:44;;;;;;;;;;;;;;;10.29;100.00;97540.22;5122210;28;19946;-62
2022/11/05 00:30:12;;;;;;;;;;;;;;;10.16;100.00;97556.00;5125060;28;19932;-62
2022/11/05 00:32:39;;;;;;;;;;;;;;;10.25;100.00;97554.38;5124942;28;19924;-63
2022/11/05 00:35:06;;;;;;;;;;;;;;;10.39;100.00;97551.97;5120890;28;19924;-63
2022/11/05 00:37:32;;;;;;;;;;;;;;;10.48;100.00;97559.16;5121177;28;19959;-62
2022/11/05 00:39:58;;;;;;;;;;;;;;;10.59;100.00;97554.56;5123976;28;19927;-63
2022/11/05 00:45:09;;;;;;;;;;;;;;;10.69;100.00;97555.34;5121036;28;19924;-62
2022/11/05 00:50:21;;;;;;;;;;;;;;;10.78;100.00;97566.25;5121212;28;19924;-62
2022/11/05 00:52:55;;;;;;;;;;;;;;;10.86;100.00;97571.06;5120813;28;19934;-62
2022/11/05 00:55:22;;;;;;;;;;;;;;;10.81;100.00;97574.53;5118496;28;19975;-63
2022/11/05 00:57:48;;;;;;;;;;;;;;;10.80;100.00;97582.81;5122967;28;19924;-63
2022/11/05 01:00:15;;;;;;;;;;;;;;;10.75;100.00;97586.31;5120753;28;19987;-62
2022/11/05 01:02:42;;;;;;;;;;;;;;;10.74;100.00;97584.69;5120603;28;19979;-63
2022/11/05 01:05:09;;;;;;;;;;;;;;;10.66;100.00;97573.78;5124154;28;19924;-63
2022/11/05 01:07:35;;;;;;;;;;;;;;;10.55;100.00;97574.91;5123915;28;19994;-63
2022/11/05 01:10:01;;;;;;;;;;;;;;;10.41;100.00;97577.31;5120838;28;19964;-63
2022/11/05 01:12:28;;;;;;;;;;;;;;;10.43;100.00;97577.81;5120754;28;19987;-63
2022/11/05 01:14:54;;;;;;;;;;;;;;;10.52;100.00;97586.13;5122876;28;19963;-63
2022/11/05 01:17:20;;;;;;;;;;;;;;;10.56;100.00;97585.28;5124524;28;19927;-63
2022/11/05 01:19:48;;;;;;;;;;;;;;;10.53;100.00;97596.50;5122801;28;19971;-61
2022/11/05 01:22:15;;;;;;;;;;;;;;;10.50;100.00;97594.38;5120523;28;19988;-62
2022/11/05 01:24:42;;;;;;;;;;;;;;;10.55;100.00;97601.59;5112772;28;19967;-63
2022/11/05 01:27:08;;;;;;;;;;;;;;;10.44;100.00;97590.13;5124078;28;19924;-63
2022/11/05 01:29:34;;;;;;;;;;;;;;;10.44;100.00;97590.13;5123776;28;19923;-63
2022/11/05 01:32:01;;;;;;;;;;;;;;;10.56;100.00;97593.28;5120788;28;19928;-65
2022/11/05 01:34:27;;;;;;;;;;;;;;;10.57;100.00;97583.41;5120475;28;19928;-62
2022/11/05 01:36:55;;;;;;;;;;;;;;;10.43;100.00;97587.72;5122248;28;19959;-63
2022/11/05 01:39:21;;;;;;;;;;;;;;;10.48;100.00;97588.53;5123748;28;19936;-62
2022/11/05 01:41:47;;;;;;;;;;;;;;;10.40;100.00;97586.38;5122400;28;19924;-63
2022/11/05 01:44:33;;;;;;;;;;;;;;;10.48;100.00;97590.38;5120292;28;19924;-63
2022/11/05 01:46:59;;;;;;;;;;;;;;;10.58;100.00;97601.06;5121995;28;19955;-63
2022/11/05 01:49:28;;;;;;;;;;;;;;;10.58;100.00;97601.84;5123398;28;19924;-63
2022/11/05 01:51:57;;;;;;;;;;;;;;;10.63;100.00;97601.03;5120825;28;19979;-63
2022/11/05 01:54:27;;;;;;;;;;;;;;;10.67;100.00;97613.59;5093247;28;19987;-63
2022/11/05 01:56:55;;;;;;;;;;;;;;;10.73;100.00;97603.69;5121689;28;19930;-62
2022/11/05 01:59:24;;;;;;;;;;;;;;;10.72;100.00;97604.75;5123096;28;19987;-62
2022/11/05 02:01:50;;;;;;;;;;;;;;;10.70;100.00;97615.72;5121045;28;19987;-63
2022/11/05 02:04:21;;;;;;;;;;;;;;;10.73;100.00;97607.16;5101440;28;19975;-62
2022/11/05 02:06:47;;;;;;;;;;;;;;;10.75;100.00;97607.69;5120476;28;19924;-61
2022/11/05 02:09:19;;;;;;;;;;;;;;;10.77;100.00;97613.53;5122890;28;19973;-63
2022/11/05 02:11:46;;;;;;;;;;;;;;;10.80;100.00;97609.53;5121463;28;20037;-63
2022/11/05 02:14:12;;;;;;;;;;;;;;;10.80;100.00;97610.31;5117655;28;19924;-62
2022/11/05 02:16:41;;;;;;;;;;;;;;;10.78;100.00;97614.34;5119251;28;19987;-62
2022/11/05 02:19:17;;;;;;;;;;;;;;;10.81;100.00;97622.63;5122694;28;20455;-62
2022/11/05 02:21:59;;;;;;;;;;;;;;;10.74;100.00;97624.78;5121992;28;19999;-62
2022/11/05 02:24:41;;;;;;;;;;;;;;;10.71;100.00;97621.84;5110785;28;20005;-61
2022/11/05 02:27:12;;;;;;;;;;;;;;;10.75;100.00;97620.22;5118919;28;20006;-63
2022/11/05 02:29:56;;;;;;;;;;;;;;;10.72;100.00;97616.22;5119167;28;19992;-63
2022/11/05 02:32:31;;;;;;;;;;;;;;;10.64;100.00;97616.78;5119176;28;19925;-62
2022/11/05 02:35:04;;;;;;;;;;;;;;;10.64;100.00;97614.13;5121653;28;19987;-63
2022/11/05 02:37:37;;;;;;;;;;;;;;;10.69;100.00;97619.44;5122548;28;19924;-62
2022/11/05 02:40:10;;;;;;;;;;;;;;;10.73;100.00;97615.19;5110336;28;19924;-62
2022/11/05 02:42:42;;;;;;;;;;;;;;;10.72;100.00;97618.91;5110669;28;19989;-63
2022/11/05 02:45:13;;;;;;;;;;;;;;;10.73;100.00;97611.69;5114726;28;19951;-61
2022/11/05 02:47:43;;;;;;;;;;;;;;;10.73;100.00;97604.50;5122607;28;19934;-62
2022/11/05 02:50:18;;;;;;;;;;;;;;;10.73;100.00;97606.34;5118981;28;20031;-62
2022/11/05 02:52:50;;;;;;;;;;;;;;;10.67;100.00;97607.44;5118899;28;19980;-62
2022/11/05 02:55:22;;;;;;;;;;;;;;;10.66;100.00;97617.31;5115767;28;19939;-62
2022/11/05 02:57:48;;;;;;;;;;;;;;;10.64;100.00;97621.34;5121091;28;19984;-62
2022/11/05 03:00:38;;;;;;;;;;;;;;;10.62;100.00;97618.13;5118951;28;19946;-63
2022/11/05 03:03:08;;;;;;;;;;;;;;;10.55;100.00;97610.38;5109849;28;20023;-62
2022/11/05 03:05:40;;;;;;;;;;;;;;;10.57;100.00;97610.13;5110026;28;19931;-62
2022/11/05 03:08:10;;;;;;;;;;;;;;;10.59;100.00;97607.97;5113917;28;19924;-63
2022/11/05 03:10:42;;;;;;;;;;;;;;;10.61;100.00;97614.66;5122123;28;19924;-62
2022/11/05 03:13:12;;;;;;;;;;;;;;;10.57;100.00;97620.81;5110028;28;19963;-62
2022/11/05 03:15:46;;;;;;;;;;;;;;;10.61;100.00;97617.34;5109997;28;19964;-63
2022/11/05 03:18:18;;;;;;;;;;;;;;;10.53;100.00;97623.22;5109784;28;20352;-62
2022/11/05 03:20:46;;;;;;;;;;;;;;;10.41;100.00;97621.88;5110050;28;19956;-62
2022/11/05 03:23:16;;;;;;;;;;;;;;;10.43;100.00;97625.88;5112556;28;19920;-63
2022/11/05 03:25:45;;;;;;;;;;;;;;;10.45;100.00;97621.09;5120253;28;20590;-63
2022/11/05 03:28:13;;;;;;;;;;;;;;;10.50;100.00;97637.09;5119796;28;19994;-62
2022/11/05 03:30:41;;;;;;;;;;;;;;;10.53;100.00;97635.75;5119682;28;19984;-63
2022/11/05 03:33:10;;;;;;;;;;;;;;;10.52;100.00;97634.94;5122183;28;19963;-62
2022/11/05 03:35:39;;;;;;;;;;;;;;;10.57;100.00;97645.63;5122073;28;19951;-62
2022/11/05 03:38:07;;;;;;;;;;;;;;;10.56;100.00;97646.69;5118161;28;19924;-63
2022/11/05 03:40:36;;;;;;;;;;;;;;;10.54;100.00;97651.53;5118469;28;19924;-63
2022/11/05 03:43:06;;;;;;;;;;;;;;;10.43;100.00;97647.25;5121471;28;19986;-61
2022/11/05 03:45:35;;;;;;;;;;;;;;;10.47;100.00;97652.84;5121561;28;19924;-62
2022/11/05 03:48:02;;;;;;;;;;;;;;;10.45;100.00;97655.81;5118314;28;19983;-62
2022/11/05 03:50:31;;;;;;;;;;;;;;;10.46;100.00;97665.38;5118297;28;19924;-63
2022/11/05 03:53:01;;;;;;;;;;;;;;;10.46;100.00;97678.75;5117814;28;19942;-62
2022/11/05 03:55:30;;;;;;;;;;;;;;;10.43;100.00;97684.63;5116532;28;19979;-62
2022/11/05 03:57:58;;;;;;;;;;;;;;;10.43;100.00;97695.28;5101081;28;19958;-62
2022/11/05 04:00:24;;;;;;;;;;;;;;;10.41;100.00;97697.44;5118331;28;19988;-62
2022/11/05 04:02:50;;;;;;;;;;;;;;;10.37;100.00;97701.69;5119490;28;19988;-63
2022/11/05 04:05:17;;;;;;;;;;;;;;;10.36;100.00;97704.66;5121319;28;20011;-62
2022/11/05 04:13:24;;;;;;;;;;;;;;;10.29;100.00;97726.25;5121948;28;19977;-63
2022/11/05 04:18:35;;;;;;;;;;;;;;;10.30;100.00;97725.19;5125421;28;19919;-63
2022/11/05 04:26:30;;;;;;;;;;;;;;;10.42;100.00;97744.44;5121396;28;19978;-63
2022/11/05 04:31:40;;;;;;;;;;;;;;;10.32;100.00;97749.75;5124726;28;19924;-64
2022/11/05 04:34:07;;;;;;;;;;;;;;;10.37;100.00;97746.31;5121240;28;19931;-63
2022/11/05 04:36:33;;;;;;;;;;;;;;;10.38;100.00;97735.34;5121396;28;20015;-63
2022/11/05 04:38:59;;;;;;;;;;;;;;;10.36;100.00;97742.03;5123958;28;19959;-62
2022/11/05 04:41:26;;;;;;;;;;;;;;;10.35;100.00;97751.09;5125037;28;19934;-63
2022/11/05 04:43:54;;;;;;;;;;;;;;;10.38;100.00;97754.03;5122976;28;19928;-62
2022/11/05 04:46:20;;;;;;;;;;;;;;;10.34;100.00;97744.94;5121188;28;19988;-62
2022/11/05 04:48:46;;;;;;;;;;;;;;;10.07;100.00;97755.00;5122154;28;19978;-62
2022/11/05 04:51:13;;;;;;;;;;;;;;;9.77;100.00;97756.53;5124666;28;19924;-62
2022/11/05 04:53:39;;;;;;;;;;;;;;;9.69;100.00;97757.00;5116212;28;19962;-62
2022/11/05 04:56:09;;;;;;;;;;;;;;;9.86;100.00;97756.81;5120801;28;19954;-62
2022/11/05 04:58:38;;;;;;;;;;;;;;;10.00;100.00;97757.91;5120867;28;19930;-62
2022/11/05 05:01:06;;;;;;;;;;;;;;;10.00;100.00;97755.25;5112441;28;19935;-62
2022/11/05 05:03:32;;;;;;;;;;;;;;;10.01;100.00;97756.06;5112154;28;19943;-63
2022/11/05 05:05:59;;;;;;;;;;;;;;;10.01;100.00;97762.19;5111965;28;19970;-63
2022/11/05 05:08:25;;;;;;;;;;;;;;;9.85;100.00;97759.72;5112183;28;19994;-63
2022/11/05 05:10:52;;;;;;;;;;;;;;;9.85;100.00;97755.19;5111875;28;19995;-63
2022/11/05 05:13:18;;;;;;;;;;;;;;;9.91;100.00;97762.16;5112136;28;20398;-64
2022/11/05 05:15:44;;;;;;;;;;;;;;;10.00;100.00;97755.25;5111868;28;20011;-61
2022/11/05 05:18:12;;;;;;;;;;;;;;;9.92;100.00;97769.09;5112066;28;19943;-66
2022/11/05 05:23:22;;;;;;;;;;;;;;;9.81;100.00;97777.34;5111990;28;19938;-63
2022/11/05 05:25:49;;;;;;;;;;;;;;;9.94;100.00;97774.97;5120314;28;19935;-62
2022/11/05 05:28:15;;;;;;;;;;;;;;;10.02;100.00;97779.81;5120376;28;19984;-62
2022/11/05 05:30:41;;;;;;;;;;;;;;;9.90;100.00;97778.44;5120778;28;19934;-63
2022/11/05 05:33:08;;;;;;;;;;;;;;;9.92;100.00;97778.97;5123800;28;20221;-62
2022/11/05 05:35:35;;;;;;;;;;;;;;;9.84;100.00;97790.16;5123675;28;19987;-63
2022/11/05 05:38:02;;;;;;;;;;;;;;;9.90;100.00;97781.09;5120143;28;19966;-62
2022/11/05 05:40:28;;;;;;;;;;;;;;;9.99;100.00;97780.34;5120052;28;19984;-62
2022/11/05 05:42:55;;;;;;;;;;;;;;;9.93;100.00;97785.91;5121835;28;19979;-61
2022/11/05 05:45:21;;;;;;;;;;;;;;;9.57;100.00;97782.28;5123345;28;19966;-63
2022/11/05 05:47:47;;;;;;;;;;;;;;;9.64;100.00;97786.31;5122064;28;19924;-62
2022/11/05 05:50:14;;;;;;;;;;;;;;;9.76;100.00;97788.78;5119980;28;19924;-63
2022/11/05 05:52:41;;;;;;;;;;;;;;;9.77;100.00;97785.84;5119595;28;20023;-62
2022/11/05 05:55:11;;;;;;;;;;;;;;;9.87;100.00;97797.63;5115348;28;20003;-62
2022/11/05 05:57:37;;;;;;;;;;;;;;;9.99;100.00;97792.88;5123517;28;19923;-63
2022/11/05 06:00:04;;;;;;;;;;;;;;;10.06;100.00;97794.22;5119764;28;19924;-62
2022/11/05 06:02:31;;;;;;;;;;;;;;;10.01;100.00;97793.41;5119132;28;19924;-63
2022/11/05 06:04:57;;;;;;;;;;;;;;;9.95;100.00;97799.78;5122129;28;19924;-62
2022/11/05 06:07:24;;;;;;;;;;;;;;;9.96;100.00;97798.72;5123236;28;19988;-62
2022/11/05 06:09:51;;;;;;;;;;;;;;;10.04;100.00;97804.34;5121686;28;19987;-61
2022/11/05 06:12:18;;;;;;;;;;;;;;;10.11;100.00;97809.44;5119820;28;19924;-62
2022/11/05 06:14:44;;;;;;;;;;;;;;;10.17;100.00;97813.78;5120019;28;20011;-63
2022/11/05 06:17:10;;;;;;;;;;;;;;;10.22;100.00;97811.09;5122943;28;19923;-62
2022/11/05 06:19:37;;;;;;;;;;;;;;;10.24;100.00;97815.09;5122856;28;20316;-63
2022/11/05 06:22:03;;;;;;;;;;;;;;;10.28;100.00;97826.06;5119272;28;19984;-62
2022/11/05 06:24:29;;;;;;;;;;;;;;;10.28;100.00;97828.75;5110800;28;19995;-63
2022/11/05 06:26:57;;;;;;;;;;;;;;;10.29;100.00;97827.69;5121505;28;19924;-62
2022/11/05 06:29:23;;;;;;;;;;;;;;;10.29;100.00;97825.81;5123214;28;19987;-62
2022/11/05 06:31:49;;;;;;;;;;;;;;;10.31;100.00;97830.88;5121655;28;19930;-63
2022/11/05 06:34:16;;;;;;;;;;;;;;;10.29;100.00;97836.50;5119268;28;19991;-62
2022/11/05 06:36:42;;;;;;;;;;;;;;;10.32;100.00;97837.84;5119558;28;19971;-62
2022/11/05 06:39:09;;;;;;;;;;;;;;;10.34;100.00;97834.91;5122667;28;19988;-63
2022/11/05 06:41:36;;;;;;;;;;;;;;;10.36;100.00;97846.13;5105067;28;19923;-62
2022/11/05 06:44:03;;;;;;;;;;;;;;;10.39;100.00;97849.06;5119429;28;19930;-62
2022/11/05 06:46:30;;;;;;;;;;;;;;;10.40;100.00;97849.88;5119535;28;19975;-62
2022/11/05 06:48:56;;;;;;;;;;;;;;;10.44;100.00;97858.94;5121581;28;19987;-62
2022/11/05 06:51:23;;;;;;;;;;;;;;;10.38;100.00;97850.13;5122536;28;19988;-62
2022/11/05 06:53:49;;;;;;;;;;;;;;;10.38;100.00;97858.13;5112591;28;19924;-62
2022/11/05 06:56:16;;;;;;;;;;;;;;;10.31;100.00;97862.91;5119079;28;20039;-63
2022/11/05 06:58:42;;;;;;;;;;;;;;;10.30;100.00;97866.66;5119350;28;19983;-63
2022/11/05 07:01:10;;;;;;;;;;;;;;;10.26;100.00;97878.91;5122490;28;20028;-63
2022/11/05 07:03:36;;;;;;;;;;;;;;;10.28;100.00;97879.44;5122138;28;19920;-63
2022/11/05 07:06:04;;;;;;;;;;;;;;;10.34;100.00;97889.06;5118819;28;19990;-62
2022/11/05 07:08:31;;;;;;;;;;;;;;;10.39;100.00;97889.13;5118828;28;19979;-63
2022/11/05 07:10:58;;;;;;;;;;;;;;;10.39;100.00;97896.31;5121346;28;19924;-63
2022/11/05 07:13:24;;;;;;;;;;;;;;;10.41;100.00;97894.97;5122019;28;19991;-63
2022/11/05 07:15:50;;;;;;;;;;;;;;;10.41;100.00;97892.31;5120660;28;19983;-62
2022/11/05 07:18:18;;;;;;;;;;;;;;;10.39;100.00;97896.31;5118681;28;19995;-62
2022/11/05 07:20:44;;;;;;;;;;;;;;;10.48;100.00;97908.09;5119426;28;19987;-64
2022/11/05 07:23:12;;;;;;;;;;;;;;;10.45;100.00;97901.41;5117778;28;19991;-64
2022/11/05 07:25:38;;;;;;;;;;;;;;;10.39;100.00;97897.13;5118423;28;19924;-63
2022/11/05 07:28:04;;;;;;;;;;;;;;;10.46;100.00;97905.66;5110066;28;20015;-62
2022/11/05 07:30:32;;;;;;;;;;;;;;;10.41;100.00;97916.34;5110101;28;19924;-62
2022/11/05 07:32:58;;;;;;;;;;;;;;;10.15;100.00;97912.75;5110110;28;19984;-63
2022/11/05 07:35:25;;;;;;;;;;;;;;;10.08;100.00;97914.03;5110290;28;19928;-63
2022/11/05 07:37:53;;;;;;;;;;;;;;;10.23;100.00;97919.47;5110229;28;19990;-63
2022/11/05 07:40:20;;;;;;;;;;;;;;;10.20;100.00;97910.13;5110145;28;19924;-62
2022/11/05 07:42:47;;;;;;;;;;;;;;;10.24;100.00;97911.19;5109868;28;19924;-63
2022/11/05 07:45:14;;;;;;;;;;;;;;;10.26;100.00;97910.94;5111178;28;19975;-62
2022/11/05 07:47:44;;;;;;;;;;;;;;;10.43;100.00;97916.09;5113991;28;20073;-63
2022/11/05 07:50:11;;;;;;;;;;;;;;;10.43;100.00;97916.88;5113878;28;19953;-63
2022/11/05 07:52:38;;;;;;;;;;;;;;;10.57;100.00;97931.34;5113866;28;19946;-63
2022/11/05 07:55:05;;;;;;;;;;;;;;;10.50;100.00;97930.78;5113741;28;19931;-63
2022/11/05 07:57:32;;;;;;;;;;;;;;;10.48;100.00;97938.28;5113659;28;19924;-63
2022/11/05 07:59:58;;;;;;;;;;;;;;;10.41;100.00;97936.88;5113604;28;19990;-63
2022/11/05 08:02:24;;;;;;;;;;;;;;;10.40;100.00;97941.41;5113330;28;20327;-62
2022/11/05 08:04:51;;;;;;;;;;;;;;;10.34;100.00;97945.13;5113231;28;19994;-63
2022/11/05 08:07:17;;;;;;;;;;;;;;;10.23;100.00;97933.63;5113549;28;19963;-64
2022/11/05 08:09:45;;;;;;;;;;;;;;;10.18;100.00;97943.47;5113377;28;19967;-63
2022/11/05 08:12:11;;;;;;;;;;;;;;;10.16;100.00;97951.72;5113360;28;19928;-62
2022/11/05 08:14:37;;;;;;;;;;;;;;;10.12;100.00;97953.25;5113490;28;19979;-63
2022/11/05 08:17:03;;;;;;;;;;;;;;;10.24;100.00;97953.88;5113134;28;19935;-63
2022/11/05 08:19:30;;;;;;;;;;;;;;;10.25;100.00;97960.03;5113267;28;19974;-62
2022/11/05 08:21:56;;;;;;;;;;;;;;;10.27;100.00;97956.03;5115596;28;19956;-62
2022/11/05 08:24:22;;;;;;;;;;;;;;;10.22;100.00;97965.91;5113777;27;20010;-63
2022/11/05 08:26:50;;;;;;;;;;;;;;;10.26;100.00;97964.31;5122874;28;19970;-63
2022/11/05 08:29:16;;;;;;;;;;;;;;;10.15;100.00;97965.34;5124923;28;19987;-62
2022/11/05 08:31:43;;;;;;;;;;;;;;;10.18;100.00;97964.81;5124186;28;20610;-62
2022/11/05 08:34:09;;;;;;;;;;;;;;;10.26;100.00;97972.34;5121536;28;19971;-64
2022/11/05 08:36:35;;;;;;;;;;;;;;;10.29;100.00;97974.47;5121506;28;19992;-63
2022/11/05 08:39:02;;;;;;;;;;;;;;;10.39;100.00;97971.88;5124504;28;19975;-63
2022/11/05 08:41:28;;;;;;;;;;;;;;;10.38;100.00;97972.94;5125051;28;19924;-63
2022/11/05 08:43:56;;;;;;;;;;;;;;;10.51;100.00;97967.13;5122937;28;19928;-62
2022/11/05 08:46:22;;;;;;;;;;;;;;;10.47;100.00;97968.69;5121055;28;20253;-62
2022/11/05 08:48:48;;;;;;;;;;;;;;;10.52;100.00;97970.59;5122310;28;19924;-62
2022/11/05 08:51:15;;;;;;;;;;;;;;;10.52;100.00;97976.72;5124529;28;20027;-62
2022/11/05 08:53:41;;;;;;;;;;;;;;;10.46;100.00;97988.44;5115923;28;19979;-62
2022/11/05 08:56:08;;;;;;;;;;;;;;;10.48;100.00;97989.00;5120567;28;19979;-62
2022/11/05 08:58:34;;;;;;;;;;;;;;;10.42;100.00;97994.56;5120951;28;19984;-62
2022/11/05 09:01:03;;;;;;;;;;;;;;;10.31;100.00;97996.38;5123629;28;19931;-62
2022/11/05 09:03:30;;;;;;;;;;;;;;;10.18;100.00;97989.63;5124249;28;19962;-64
2022/11/05 09:05:56;;;;;;;;;;;;;;;10.20;100.00;98000.06;5121644;28;19923;-63
2022/11/05 09:08:22;;;;;;;;;;;;;;;10.12;100.00;97990.63;5120316;28;19924;-62
2022/11/05 09:10:49;;;;;;;;;;;;;;;10.05;100.00;98002.59;5121873;28;19992;-63
2022/11/05 09:13:16;;;;;;;;;;;;;;;9.95;100.00;97998.00;5123986;28;19974;-63
2022/11/05 09:15:42;;;;;;;;;;;;;;;9.84;100.00;98006.19;5129636;28;19930;-64
2022/11/05 09:18:12;;;;;;;;;;;;;;;9.87;100.00;98003.00;5120657;28;19959;-64
2022/11/05 09:20:39;;;;;;;;;;;;;;;9.90;100.00;98011.31;5120519;28;20031;-63
2022/11/05 09:23:05;;;;;;;;;;;;;;;9.90;100.00;98015.84;5112035;28;19963;-62
2022/11/05 09:25:32;;;;;;;;;;;;;;;9.89;100.00;98006.22;5119421;28;20003;-62
2022/11/05 09:28:05;;;;;;;;;;;;;;;9.86;100.00;98017.41;5121384;28;19931;-63
2022/11/05 09:30:31;;;;;;;;;;;;;;;9.90;100.00;98016.66;5120743;28;19924;-63
2022/11/05 09:32:58;;;;;;;;;;;;;;;9.96;100.00;98010.28;5123054;28;19962;-62
2022/11/05 09:35:25;;;;;;;;;;;;;;;10.03;100.00;98010.84;5123850;28;19986;-63
2022/11/05 09:37:52;;;;;;;;;;;;;;;10.02;100.00;98014.59;5122027;28;20014;-63
2022/11/05 09:40:18;;;;;;;;;;;;;;;9.97;100.00;98014.53;5120346;28;19970;-62
2022/11/05 09:42:46;;;;;;;;;;;;;;;10.01;100.00;98023.66;5120820;28;19974;-62
2022/11/05 09:45:15;;;;;;;;;;;;;;;10.12;100.00;98019.97;5123750;28;19934;-63
2022/11/05 09:47:44;;;;;;;;;;;;;;;10.17;100.00;98033.41;5123626;28;19924;-63
2022/11/05 09:50:14;;;;;;;;;;;;;;;10.26;100.00;98034.53;5120192;28;19924;-62
2022/11/05 09:52:42;;;;;;;;;;;;;;;10.26;100.00;98025.72;5125122;28;19996;-62
2022/11/05 09:55:17;;;;;;;;;;;;;;;10.45;100.00;98028.75;5123505;28;20397;-63
2022/11/05 09:57:45;;;;;;;;;;;;;;;10.58;100.00;98023.78;5122912;28;20019;-63
2022/11/05 10:00:15;;;;;;;;;;;;;;;10.52;100.00;98019.44;5119932;28;20393;-63
2022/11/05 10:02:45;;;;;;;;;;;;;;;10.57;100.00;98022.16;5119696;28;19920;-63
2022/11/05 10:05:13;;;;;;;;;;;;;;;10.34;100.00;98019.88;5123418;28;19919;-64
2022/11/05 10:07:42;;;;;;;;;;;;;;;10.58;100.00;98023.78;5122308;28;19979;-62
2022/11/05 10:10:18;;;;;;;;;;;;;;;10.65;100.00;98034.19;5110823;28;19987;-62
2022/11/05 10:12:47;;;;;;;;;;;;;;;10.68;100.00;98029.13;5109920;28;19928;-63
2022/11/05 10:15:15;;;;;;;;;;;;;;;10.76;100.00;98023.31;5111031;28;19995;-63
2022/11/05 10:17:44;;;;;;;;;;;;;;;10.77;100.00;98022.22;5110998;28;19996;-63
2022/11/05 10:20:14;;;;;;;;;;;;;;;10.86;100.00;98029.75;5111036;28;20015;-62
2022/11/05 10:22:41;;;;;;;;;;;;;;;10.91;100.00;98032.44;5111047;28;19924;-62
2022/11/05 10:25:15;;;;;;;;;;;;;;;11.02;100.00;98034.88;5114865;28;19930;-63
2022/11/05 10:27:44;;;;;;;;;;;;;;;11.04;100.00;98034.63;5122524;28;19955;-62
2022/11/05 10:30:13;;;;;;;;;;;;;;;11.05;100.00;98033.56;5101480;28;19984;-62
2022/11/05 10:32:41;;;;;;;;;;;;;;;10.81;100.00;98039.34;5119651;28;19923;-63
2022/11/05 10:35:08;;;;;;;;;;;;;;;10.86;100.00;98035.91;5119341;28;19950;-61
2022/11/05 10:37:36;;;;;;;;;;;;;;;10.97;100.00;98034.88;5119091;28;19978;-63
2022/11/05 10:40:02;;;;;;;;;;;;;;;10.99;100.00;98040.75;5122141;28;19924;-63
2022/11/05 10:42:35;;;;;;;;;;;;;;;10.99;100.00;98042.59;5122594;28;19923;-62
2022/11/05 10:45:07;;;;;;;;;;;;;;;11.00;100.00;98041.56;5119401;28;19991;-62
2022/11/05 10:47:43;;;;;;;;;;;;;;;11.04;100.00;98037.31;5118733;28;19967;-63
2022/11/05 10:50:10;;;;;;;;;;;;;;;11.06;100.00;98040.50;5118945;28;20454;-63
2022/11/05 10:52:39;;;;;;;;;;;;;;;11.11;100.00;98037.88;5118997;28;19983;-63
2022/11/05 10:55:13;;;;;;;;;;;;;;;11.06;100.00;98041.31;5119220;28;19967;-62
2022/11/05 10:57:40;;;;;;;;;;;;;;;11.22;100.00;98044.84;5118792;28;19924;-63
2022/11/05 11:00:22;;;;;;;;;;;;;;;11.20;100.00;98038.97;5118582;28;19931;-62
2022/11/05 11:02:50;;;;;;;;;;;;;;;11.11;100.00;98041.31;5119408;28;19924;-63
2022/11/05 11:05:21;;;;;;;;;;;;;;;11.02;100.00;98042.09;5121792;28;19947;-63
2022/11/05 11:07:53;;;;;;;;;;;;;;;10.95;100.00;98033.53;5120905;28;19931;-62
2022/11/05 11:10:21;;;;;;;;;;;;;;;10.97;100.00;98044.75;5118404;28;19931;-62
2022/11/05 11:12:48;;;;;;;;;;;;;;;10.94;100.00;98048.75;5119613;28;20007;-62
2022/11/05 11:15:16;;;;;;;;;;;;;;;10.87;100.00;98037.50;5121963;28;19928;-63
2022/11/05 11:17:44;;;;;;;;;;;;;;;10.78;100.00;98041.72;5121396;28;19966;-62
2022/11/05 11:20:22;;;;;;;;;;;;;;;10.79;100.00;98046.03;5121365;28;19987;-63
2022/11/05 11:23:10;;;;;;;;;;;;;;;10.82;100.00;98065.00;5122540;28;20412;-62
2022/11/05 11:25:39;;;;;;;;;;;;;;;10.73;100.00;98058.56;5121992;28;19991;-63
2022/11/05 11:28:07;;;;;;;;;;;;;;;10.68;100.00;98061.19;5114205;28;19991;-63
2022/11/05 11:30:34;;;;;;;;;;;;;;;10.69;100.00;98051.31;5114076;28;19959;-62
2022/11/05 11:33:06;;;;;;;;;;;;;;;10.65;100.00;98052.88;5114220;28;20856;-62
2022/11/05 11:35:34;;;;;;;;;;;;;;;10.67;100.00;98059.59;5114000;28;19924;-63
2022/11/05 11:38:01;;;;;;;;;;;;;;;10.64;100.00;98057.44;5113651;28;19984;-62
2022/11/05 11:40:30;;;;;;;;;;;;;;;10.71;100.00;98066.00;5113827;28;19989;-62
2022/11/05 11:42:57;;;;;;;;;;;;;;;10.65;100.00;98064.38;5113387;28;19984;-62
2022/11/05 11:45:25;;;;;;;;;;;;;;;10.63;100.00;98065.69;5113376;28;19962;-63
2022/11/05 11:47:51;;;;;;;;;;;;;;;10.71;100.00;98074.03;5113303;28;20097;-62
2022/11/05 11:50:39;;;;;;;;;;;;;;;10.69;100.00;98065.47;5113378;28;19984;-63
2022/11/05 11:53:33;;;;;;;;;;;;;;;10.79;100.00;98076.22;5098085;28;19963;-62
2022/11/05 11:56:01;;;;;;;;;;;;;;;10.79;100.00;98065.53;5096395;28;20023;-62
2022/11/05 11:58:40;;;;;;;;;;;;;;;10.92;100.00;98066.13;5121730;28;19935;-63
2022/11/05 12:01:22;;;;;;;;;;;;;;;11.00;100.00;98068.28;5121478;28;19996;-62
2022/11/05 12:03:50;;;;;;;;;;;;;;;10.99;100.00;98064.78;5108293;28;20050;-62
2022/11/05 12:06:24;;;;;;;;;;;;;;;10.96;100.00;98067.19;5121514;28;20041;-63
2022/11/05 12:08:55;;;;;;;;;;;;;;;10.94;100.00;98070.13;5104699;28;19924;-63
2022/11/05 12:11:23;;;;;;;;;;;;;;;10.90;100.00;98069.03;5125424;28;19931;-62
2022/11/05 12:14:02;;;;;;;;;;;;;;;10.92;100.00;98060.78;5123728;28;20002;-62
2022/11/05 12:16:47;;;;;;;;;;;;;;;11.01;100.00;98069.91;5121850;28;19925;-62
2022/11/05 12:19:18;;;;;;;;;;;;;;;11.06;100.00;98060.00;5112570;28;19970;-62
2022/11/05 12:21:52;;;;;;;;;;;;;;;11.09;100.00;98061.34;5112946;28;19967;-62
2022/11/05 12:24:38;;;;;;;;;;;;;;;10.99;100.00;98053.28;5112896;28;19992;-62
2022/11/05 12:27:12;;;;;;;;;;;;;;;10.98;100.00;98057.88;5124658;28;19974;-62
2022/11/05 12:29:47;;;;;;;;;;;;;;;10.96;100.00;98061.84;5125008;28;20333;-63
2022/11/05 12:32:30;;;;;;;;;;;;;;;10.89;100.00;98067.44;5112394;28;19999;-62
2022/11/05 12:35:02;;;;;;;;;;;;;;;11.01;100.00;98069.91;5112738;28;20019;-62
2022/11/05 12:37:33;;;;;;;;;;;;;;;11.04;100.00;98072.03;5112711;28;19995;-64
2022/11/05 12:40:14;;;;;;;;;;;;;;;10.99;100.00;98072.00;5112401;28;20011;-63
2022/11/05 12:42:51;;;;;;;;;;;;;;;11.08;100.00;98065.13;5112345;28;19959;-63
2022/11/05 12:45:25;;;;;;;;;;;;;;;11.04;100.00;98083.53;5112297;28;19971;-62
2022/11/05 12:47:59;;;;;;;;;;;;;;;11.03;100.00;98084.59;5094263;28;19963;-62
2022/11/05 12:50:30;;;;;;;;;;;;;;;10.86;100.00;98084.00;5094244;28;19983;-62
2022/11/05 12:53:15;;;;;;;;;;;;;;;10.99;100.00;98080.03;5112204;28;19963;-62
2022/11/05 12:55:45;;;;;;;;;;;;;;;10.98;100.00;98081.91;5120875;28;20018;-62
2022/11/05 12:58:20;;;;;;;;;;;;;;;10.90;100.00;98081.59;5120626;28;19989;-62
2022/11/05 13:00:49;;;;;;;;;;;;;;;10.92;100.00;98082.16;5121431;28;20004;-62
2022/11/05 13:03:23;;;;;;;;;;;;;;;10.93;100.00;98073.03;5124004;28;19927;-63
2022/11/05 13:05:51;;;;;;;;;;;;;;;10.97;100.00;98090.19;5122795;28;19992;-63
2022/11/05 13:08:23;;;;;;;;;;;;;;;10.95;100.00;98100.34;5120448;28;19967;-63
2022/11/05 13:10:51;;;;;;;;;;;;;;;10.95;100.00;98089.66;5121689;28;19979;-63
2022/11/05 13:13:22;;;;;;;;;;;;;;;11.01;100.00;98092.06;5124010;28;19923;-62
2022/11/05 13:15:51;;;;;;;;;;;;;;;11.02;100.00;98096.34;5122676;28;19920;-62
2022/11/05 13:18:19;;;;;;;;;;;;;;;11.02;100.00;98099.00;5120500;28;19967;-62
2022/11/05 13:20:49;;;;;;;;;;;;;;;11.04;100.00;98102.25;5121240;28;19961;-62
2022/11/05 13:23:17;;;;;;;;;;;;;;;11.03;100.00;98094.47;5118854;28;19971;-63
2022/11/05 13:25:49;;;;;;;;;;;;;;;10.95;100.00;98103.00;5120117;28;19924;-63
2022/11/05 13:28:19;;;;;;;;;;;;;;;10.91;100.00;98096.56;5120138;28;19964;-63